Latest Weather Observations for Point Wilson

IDV60801

Issued at 9:02 am EDT Thursday 2 April 2015 (issued every 30 minutes, with the page automatically refreshed every 10 minutes)

About weather observations | Map of weather stations | Latest weather observations for VIC | Other Formats
Station Details ID: 087166 Name: POINT WILSON Lat: -38.10 Lon: 144.54 Height: 18.0 m
Data from the previous 72 hours. | See also: Recent months at Point Wilson
Date/Time
EDT
Temp
°C
App
Temp
°C
Dew
Point
Rel
Hum
%
Delta-T
°C
Wind Press
QNH
hPa
Press
MSL
hPa
Rain
since 9 am
mm
Dir
 
Spd
km/h
Gust
km/h
Spd
kts
Gust
kts
02/09:00am - - - - - WSW 28 33 15 18 - - -
02/08:30am - - - - - WSW 26 33 14 18 - - -
02/08:00am - - - - - WSW 26 33 14 18 - - -
02/07:30am - - - - - WSW 30 41 16 22 - - -
02/07:00am - - - - - WSW 30 41 16 22 - - -
02/06:30am - - - - - WSW 33 43 18 23 - - -
02/06:00am - - - - - WSW 35 44 19 24 - - -
02/05:30am - - - - - WSW 39 50 21 27 - - -
02/05:00am - - - - - WSW 37 48 20 26 - - -
02/04:30am - - - - - WSW 30 35 16 19 - - -
02/04:00am - - - - - WSW 32 39 17 21 - - -
02/03:30am - - - - - WSW 35 43 19 23 - - -
02/03:00am - - - - - W 37 46 20 25 - - -
02/02:30am - - - - - W 43 52 23 28 - - -
02/02:00am - - - - - WSW 41 50 22 27 - - -
02/01:30am - - - - - W 39 48 21 26 - - -
02/01:00am - - - - - W 41 48 22 26 - - -
02/12:30am - - - - - W 37 46 20 25 - - -
02/12:00am - - - - - W 43 52 23 28 - - -
 
Date/Time
EDT
Temp
°C
App
Temp
°C
Dew
Point
Rel
Hum
%
Delta-T
°C
Wind Press
QNH
hPa
Press
MSL
hPa
Rain
since 9 am
mm
Dir
 
Spd
km/h
Gust
km/h
Spd
kts
Gust
kts
01/11:30pm - - - - - W 46 54 25 29 - - -
01/11:18pm - - - - - W 43 56 23 30 - - -
01/11:00pm - - - - - W 32 37 17 20 - - -
01/10:30pm - - - - - W 35 44 19 24 - - -
01/10:00pm - - - - - WSW 33 41 18 22 - - -
01/09:38pm - - - - - WSW 41 52 22 28 - - -
01/09:30pm - - - - - N 26 28 14 15 - - -
01/09:00pm - - - - - N 26 28 14 15 - - -
01/08:30pm - - - - - N 24 26 13 14 - - -
01/08:00pm - - - - - N 22 24 12 13 - - -
01/07:30pm - - - - - N 19 20 10 11 - - -
01/07:00pm - - - - - N 20 22 11 12 - - -
01/06:30pm - - - - - N 20 22 11 12 - - -
01/06:00pm - - - - - N 20 22 11 12 - - -
01/05:30pm - - - - - N 22 26 12 14 - - -
01/05:00pm - - - - - N 24 32 13 17 - - -
01/04:30pm - - - - - NNW 28 33 15 18 - - -
01/04:00pm - - - - - NNW 28 32 15 17 - - -
01/03:30pm - - - - - NNW 35 44 19 24 - - -
01/03:00pm - - - - - N 22 28 12 15 - - -
01/02:30pm - - - - - N 22 32 12 17 - - -
01/02:00pm - - - - - NNW 44 57 24 31 - - -
01/01:30pm - - - - - N 37 48 20 26 - - -
01/01:00pm - - - - - N 33 43 18 23 - - -
01/12:30pm - - - - - ENE 28 30 15 16 - - -
01/12:00pm - - - - - ENE 20 26 11 14 - - -
01/11:30am - - - - - NE 28 32 15 17 - - -
01/11:00am - - - - - NNE 26 30 14 16 - - -
01/10:30am - - - - - NNE 28 32 15 17 - - -
01/10:00am - - - - - NNE 28 32 15 17 - - -
01/09:30am - - - - - NNE 32 35 17 19 - - -
01/09:00am - - - - - NNE 30 33 16 18 - - -
01/08:30am - - - - - NNE 30 35 16 19 - - -
01/08:00am - - - - - NNE 32 35 17 19 - - -
01/07:30am - - - - - NNE 32 37 17 20 - - -
01/07:00am - - - - - NE 26 39 14 21 - - -
01/06:30am - - - - - ENE 19 22 10 12 - - -
01/06:00am - - - - - ENE 15 19 8 10 - - -
01/05:30am - - - - - NE 17 19 9 10 - - -
01/05:00am - - - - - NNE 13 17 7 9 - - -
01/04:30am - - - - - NNE 15 17 8 9 - - -
01/04:00am - - - - - NNE 13 15 7 8 - - -
01/03:30am - - - - - NE 15 17 8 9 - - -
01/03:00am - - - - - NE 11 13 6 7 - - -
01/02:30am - - - - - NE 11 11 6 6 - - -
01/02:00am - - - - - NNE 7 9 4 5 - - -
01/01:30am - - - - - NNW 6 9 3 5 - - -
01/01:00am - - - - - NW 2 6 1 3 - - -
01/12:30am - - - - - NW 6 7 3 4 - - -
01/12:00am - - - - - NW 7 9 4 5 - - -
 
Date/Time
EDT
Temp
°C
App
Temp
°C
Dew
Point
Rel
Hum
%
Delta-T
°C
Wind Press
QNH
hPa
Press
MSL
hPa
Rain
since 9 am
mm
Dir
 
Spd
km/h
Gust
km/h
Spd
kts
Gust
kts
31/11:30pm - - - - - NNW 7 9 4 5 - - -
31/11:00pm - - - - - NW 7 9 4 5 - - -
31/10:30pm - - - - - NNW 7 9 4 5 - - -
31/10:00pm - - - - - N 7 13 4 7 - - -
31/09:30pm - - - - - N 6 9 3 5 - - -
31/09:00pm - - - - - E 2 9 1 5 - - -
31/08:30pm - - - - - ESE 4 9 2 5 - - -
31/08:00pm - - - - - CALM 0 0 0 0 - - -
31/07:30pm - - - - - SSE 9 13 5 7 - - -
31/07:00pm - - - - - SE 17 20 9 11 - - -
31/06:30pm - - - - - SE 11 15 6 8 - - -
31/06:00pm - - - - - SE 15 19 8 10 - - -
31/05:30pm - - - - - S 22 24 12 13 - - -
31/05:00pm - - - - - SSE 20 26 11 14 - - -
31/04:30pm - - - - - E 15 19 8 10 - - -
31/04:00pm - - - - - E 15 17 8 9 - - -
31/03:30pm - - - - - E 17 19 9 10 - - -
31/03:00pm - - - - - E 17 19 9 10 - - -
31/02:30pm - - - - - E 15 17 8 9 - - -
31/02:00pm - - - - - E 13 15 7 8 - - -
31/01:30pm - - - - - ENE 11 13 6 7 - - -
31/01:00pm - - - - - ENE 9 11 5 6 - - -
31/12:30pm - - - - - ENE 15 17 8 9 - - -
31/12:00pm - - - - - ENE 13 17 7 9 - - -
31/11:30am - - - - - NNE 9 11 5 6 - - -
31/11:00am - - - - - CALM 0 6 0 3 - - -
31/10:30am - - - - - W 9 11 5 6 - - -
31/10:00am - - - - - W 11 13 6 7 - - -
31/09:30am - - - - - WSW 9 11 5 6 - - -
31/09:00am - - - - - WSW 9 11 5 6 - - -
31/08:30am - - - - - WSW 9 11 5 6 - - -
31/08:00am - - - - - WSW 13 17 7 9 - - -
31/07:30am - - - - - WNW 11 13 6 7 - - -
31/07:00am - - - - - SW 6 6 3 3 - - -
31/06:30am - - - - - SW 9 11 5 6 - - -
31/06:00am - - - - - WSW 11 13 6 7 - - -
31/05:30am - - - - - WSW 11 13 6 7 - - -
31/05:00am - - - - - W 11 13 6 7 - - -
31/04:30am - - - - - CALM 0 9 0 5 - - -
31/04:00am - - - - - CALM 0 0 0 0 - - -
31/03:30am - - - - - CALM 0 0 0 0 - - -
31/03:00am - - - - - CALM 0 0 0 0 - - -
31/02:30am - - - - - CALM 0 0 0 0 - - -
31/02:00am - - - - - CALM 0 0 0 0 - - -
31/01:30am - - - - - CALM 0 0 0 0 - - -
31/01:00am - - - - - CALM 0 0 0 0 - - -
31/12:30am - - - - - CALM 0 0 0 0 - - -
31/12:00am - - - - - SE 6 7 3 4 - - -
 
Date/Time
EDT
Temp
°C
App
Temp
°C
Dew
Point
Rel
Hum
%
Delta-T
°C
Wind Press
QNH
hPa
Press
MSL
hPa
Rain
since 9 am
mm
Dir
 
Spd
km/h
Gust
km/h
Spd
kts
Gust
kts
30/11:30pm - - - - - SE 7 9 4 5 - - -
30/11:00pm - - - - - SE 7 9 4 5 - - -
30/10:30pm - - - - - ESE 9 11 5 6 - - -
30/10:00pm - - - - - SE 7 9 4 5 - - -
30/09:30pm - - - - - SSE 9 9 5 5 - - -
30/09:00pm - - - - - S 11 13 6 7 - - -
30/08:30pm - - - - - S 11 13 6 7 - - -
30/08:00pm - - - - - SSE 11 15 6 8 - - -
30/07:30pm - - - - - SSE 15 19 8 10 - - -
30/07:00pm - - - - - S 19 22 10 12 - - -
30/06:30pm - - - - - SSE 20 22 11 12 - - -
30/06:00pm - - - - - SSE 19 22 10 12 - - -
30/05:30pm - - - - - S 20 24 11 13 - - -
30/05:00pm - - - - - S 20 24 11 13 - - -
30/04:30pm - - - - - S 24 28 13 15 - - -
30/04:00pm - - - - - S 22 26 12 14 - - -
30/03:30pm - - - - - SSE 17 20 9 11 - - -
30/03:00pm - - - - - S 7 13 4 7 - - -
30/02:30pm - - - - - SSW 9 11 5 6 - - -
30/02:00pm - - - - - S 9 11 5 6 - - -
30/01:30pm - - - - - S 7 9 4 5 - - -
30/01:00pm - - - - - SSW 9 11 5 6 - - -
30/12:30pm - - - - - SSW 9 11 5 6 - - -
30/12:00pm - - - - - SW 11 13 6 7 - - -
30/11:30am - - - - - SW 15 17 8 9 - - -
30/11:00am - - - - - SW 11 13 6 7 - - -
30/10:30am - - - - - WSW 11 13 6 7 - - -
30/10:00am - - - - - W 11 13 6 7 - - -
30/09:30am - - - - - W 15 17 8 9 - - -

Other Formats:

Comma delimited format used in spreadsheet applications
http://www.bom.gov.au/fwo/IDV60801/IDV60801.94847.axf

JavaScript Object Notation format (JSON) in row-major order
http://www.bom.gov.au/fwo/IDV60801/IDV60801.94847.json